sensor_id;sensor_type;location;lat;lon;timestamp;temperature;humidity
12223;DHT22;6174;49.058;8.524;2023-06-14T05:00:24;15.80;84.20
12223;DHT22;6174;49.058;8.524;2023-06-14T05:02:51;16.00;84.00
12223;DHT22;6174;49.058;8.524;2023-06-14T05:05:18;16.50;84.10
12223;DHT22;6174;49.058;8.524;2023-06-14T05:07:46;16.00;82.80
12223;DHT22;6174;49.058;8.524;2023-06-14T05:10:13;16.10;84.70
12223;DHT22;6174;49.058;8.524;2023-06-14T05:12:39;16.00;85.00
12223;DHT22;6174;49.058;8.524;2023-06-14T05:17:46;16.40;85.20
12223;DHT22;6174;49.058;8.524;2023-06-14T05:20:18;16.50;85.20
12223;DHT22;6174;49.058;8.524;2023-06-14T05:22:45;16.60;86.00
12223;DHT22;6174;49.058;8.524;2023-06-14T05:25:13;16.70;84.00
12223;DHT22;6174;49.058;8.524;2023-06-14T05:27:40;16.60;82.80
12223;DHT22;6174;49.058;8.524;2023-06-14T05:30:08;16.60;82.80
12223;DHT22;6174;49.058;8.524;2023-06-14T05:32:35;16.70;82.50
12223;DHT22;6174;49.058;8.524;2023-06-14T05:35:04;16.70;83.00
12223;DHT22;6174;49.058;8.524;2023-06-14T05:37:31;16.70;82.10
12223;DHT22;6174;49.058;8.524;2023-06-14T05:39:58;16.90;81.90
12223;DHT22;6174;49.058;8.524;2023-06-14T05:42:25;17.00;81.70
12223;DHT22;6174;49.058;8.524;2023-06-14T05:44:51;17.00;83.00
12223;DHT22;6174;49.058;8.524;2023-06-14T05:47:18;17.20;80.40
12223;DHT22;6174;49.058;8.524;2023-06-14T05:49:45;17.20;79.50
12223;DHT22;6174;49.058;8.524;2023-06-14T05:52:13;17.40;79.10
12223;DHT22;6174;49.058;8.524;2023-06-14T05:54:40;17.60;78.90
12223;DHT22;6174;49.058;8.524;2023-06-14T05:57:07;18.00;77.90
12223;DHT22;6174;49.058;8.524;2023-06-14T05:59:34;18.30;77.40
12223;DHT22;6174;49.058;8.524;2023-06-14T06:02:01;18.70;76.30
12223;DHT22;6174;49.058;8.524;2023-06-14T06:04:27;18.90;76.80
12223;DHT22;6174;49.058;8.524;2023-06-14T06:06:54;19.10;75.10
12223;DHT22;6174;49.058;8.524;2023-06-14T06:09:22;19.10;74.80
12223;DHT22;6174;49.058;8.524;2023-06-14T06:11:49;19.10;74.70
12223;DHT22;6174;49.058;8.524;2023-06-14T06:14:16;19.10;74.30
12223;DHT22;6174;49.058;8.524;2023-06-14T06:16:42;19.10;74.70
12223;DHT22;6174;49.058;8.524;2023-06-14T06:19:09;19.10;73.10
12223;DHT22;6174;49.058;8.524;2023-06-14T06:21:36;19.00;73.60
12223;DHT22;6174;49.058;8.524;2023-06-14T06:24:04;18.90;72.90
12223;DHT22;6174;49.058;8.524;2023-06-14T06:26:32;18.80;73.30
12223;DHT22;6174;49.058;8.524;2023-06-14T06:28:59;18.90;74.30
12223;DHT22;6174;49.058;8.524;2023-06-14T06:31:26;18.90;73.50
12223;DHT22;6174;49.058;8.524;2023-06-14T06:33:52;19.00;73.40
12223;DHT22;6174;49.058;8.524;2023-06-14T06:36:19;19.00;73.50
12223;DHT22;6174;49.058;8.524;2023-06-14T06:38:47;19.10;73.60
12223;DHT22;6174;49.058;8.524;2023-06-14T06:41:14;19.30;72.50
12223;DHT22;6174;49.058;8.524;2023-06-14T06:43:42;19.40;72.10
12223;DHT22;6174;49.058;8.524;2023-06-14T06:46:09;19.70;73.60
12223;DHT22;6174;49.058;8.524;2023-06-14T06:48:36;19.60;73.10
12223;DHT22;6174;49.058;8.524;2023-06-14T06:51:02;19.60;74.00
12223;DHT22;6174;49.058;8.524;2023-06-14T06:53:31;19.80;72.90
12223;DHT22;6174;49.058;8.524;2023-06-14T06:55:57;20.00;72.90
12223;DHT22;6174;49.058;8.524;2023-06-14T06:58:24;20.20;71.00
12223;DHT22;6174;49.058;8.524;2023-06-14T07:00:52;20.30;70.00
12223;DHT22;6174;49.058;8.524;2023-06-14T07:03:19;20.30;69.40
12223;DHT22;6174;49.058;8.524;2023-06-14T07:05:46;20.30;71.10
12223;DHT22;6174;49.058;8.524;2023-06-14T07:08:12;20.40;69.50
12223;DHT22;6174;49.058;8.524;2023-06-14T07:10:39;20.60;69.70
12223;DHT22;6174;49.058;8.524;2023-06-14T07:13:06;20.80;70.40
12223;DHT22;6174;49.058;8.524;2023-06-14T07:15:33;20.90;70.00
12223;DHT22;6174;49.058;8.524;2023-06-14T07:18:02;20.90;69.40
12223;DHT22;6174;49.058;8.524;2023-06-14T07:20:28;21.20;70.40
12223;DHT22;6174;49.058;8.524;2023-06-14T07:22:56;21.40;67.70
12223;DHT22;6174;49.058;8.524;2023-06-14T07:25:23;21.60;67.30
12223;DHT22;6174;49.058;8.524;2023-06-14T07:27:50;21.70;66.00
12223;DHT22;6174;49.058;8.524;2023-06-14T07:30:17;21.90;66.30
12223;DHT22;6174;49.058;8.524;2023-06-14T07:32:45;22.20;64.80
12223;DHT22;6174;49.058;8.524;2023-06-14T07:35:13;22.50;65.30
12223;DHT22;6174;49.058;8.524;2023-06-14T07:37:39;22.90;64.90
12223;DHT22;6174;49.058;8.524;2023-06-14T07:40:07;23.20;63.10
12223;DHT22;6174;49.058;8.524;2023-06-14T07:42:36;23.20;61.80
12223;DHT22;6174;49.058;8.524;2023-06-14T07:45:03;23.30;61.00
12223;DHT22;6174;49.058;8.524;2023-06-14T07:47:30;23.30;60.90
12223;DHT22;6174;49.058;8.524;2023-06-14T07:49:57;23.30;62.60
12223;DHT22;6174;49.058;8.524;2023-06-14T07:52:25;23.50;62.80
12223;DHT22;6174;49.058;8.524;2023-06-14T07:54:51;23.50;59.60
12223;DHT22;6174;49.058;8.524;2023-06-14T07:57:18;23.40;61.50
12223;DHT22;6174;49.058;8.524;2023-06-14T07:59:45;23.50;61.50
12223;DHT22;6174;49.058;8.524;2023-06-14T08:02:12;23.90;61.50
12223;DHT22;6174;49.058;8.524;2023-06-14T08:04:39;24.00;59.70
12223;DHT22;6174;49.058;8.524;2023-06-14T08:07:06;24.20;59.50
12223;DHT22;6174;49.058;8.524;2023-06-14T08:09:34;24.10;58.90
12223;DHT22;6174;49.058;8.524;2023-06-14T08:12:04;24.00;57.80
12223;DHT22;6174;49.058;8.524;2023-06-14T08:14:32;23.60;59.10
12223;DHT22;6174;49.058;8.524;2023-06-14T08:16:59;23.10;59.30
12223;DHT22;6174;49.058;8.524;2023-06-14T08:19:26;23.00;61.30
12223;DHT22;6174;49.058;8.524;2023-06-14T08:21:53;23.00;61.70
12223;DHT22;6174;49.058;8.524;2023-06-14T08:24:21;22.80;62.70
12223;DHT22;6174;49.058;8.524;2023-06-14T08:26:51;22.90;62.40
12223;DHT22;6174;49.058;8.524;2023-06-14T08:29:17;22.80;62.40
12223;DHT22;6174;49.058;8.524;2023-06-14T08:31:44;22.60;62.60
12223;DHT22;6174;49.058;8.524;2023-06-14T08:34:11;22.60;63.50
12223;DHT22;6174;49.058;8.524;2023-06-14T08:36:38;22.70;61.50
12223;DHT22;6174;49.058;8.524;2023-06-14T08:39:05;22.60;62.50
12223;DHT22;6174;49.058;8.524;2023-06-14T08:41:34;22.50;63.50
12223;DHT22;6174;49.058;8.524;2023-06-14T08:44:03;22.40;62.90
12223;DHT22;6174;49.058;8.524;2023-06-14T08:46:32;22.40;64.00
12223;DHT22;6174;49.058;8.524;2023-06-14T08:49:01;22.40;63.70
12223;DHT22;6174;49.058;8.524;2023-06-14T08:51:31;22.50;64.20
12223;DHT22;6174;49.058;8.524;2023-06-14T08:53:59;22.50;61.80
12223;DHT22;6174;49.058;8.524;2023-06-14T08:56:28;22.50;63.00
12223;DHT22;6174;49.058;8.524;2023-06-14T08:58:56;22.70;63.20
12223;DHT22;6174;49.058;8.524;2023-06-14T09:01:28;22.60;62.30
12223;DHT22;6174;49.058;8.524;2023-06-14T09:03:56;22.70;60.00
12223;DHT22;6174;49.058;8.524;2023-06-14T09:06:23;22.80;60.30
12223;DHT22;6174;49.058;8.524;2023-06-14T09:08:50;22.90;61.30
12223;DHT22;6174;49.058;8.524;2023-06-14T09:11:18;22.90;61.40
12223;DHT22;6174;49.058;8.524;2023-06-14T09:13:48;22.90;60.00
12223;DHT22;6174;49.058;8.524;2023-06-14T09:16:15;22.90;62.50
12223;DHT22;6174;49.058;8.524;2023-06-14T09:18:44;22.90;61.20
12223;DHT22;6174;49.058;8.524;2023-06-14T09:21:13;23.00;61.60
12223;DHT22;6174;49.058;8.524;2023-06-14T09:23:42;23.00;61.90
12223;DHT22;6174;49.058;8.524;2023-06-14T09:26:09;23.10;63.70
12223;DHT22;6174;49.058;8.524;2023-06-14T09:28:37;23.10;61.40
12223;DHT22;6174;49.058;8.524;2023-06-14T09:31:07;23.20;61.80
12223;DHT22;6174;49.058;8.524;2023-06-14T09:33:35;23.20;63.00
12223;DHT22;6174;49.058;8.524;2023-06-14T09:36:04;23.10;60.30
12223;DHT22;6174;49.058;8.524;2023-06-14T09:38:30;23.10;62.00
12223;DHT22;6174;49.058;8.524;2023-06-14T09:40:58;23.20;62.60
12223;DHT22;6174;49.058;8.524;2023-06-14T09:43:25;23.10;60.50
12223;DHT22;6174;49.058;8.524;2023-06-14T09:45:53;23.10;60.40
12223;DHT22;6174;49.058;8.524;2023-06-14T09:48:21;23.20;62.80
12223;DHT22;6174;49.058;8.524;2023-06-14T09:50:49;23.30;61.00
12223;DHT22;6174;49.058;8.524;2023-06-14T09:53:21;23.30;60.60
12223;DHT22;6174;49.058;8.524;2023-06-14T09:55:49;23.50;61.60
12223;DHT22;6174;49.058;8.524;2023-06-14T09:58:17;23.40;59.70
12223;DHT22;6174;49.058;8.524;2023-06-14T10:00:47;23.40;61.50
12223;DHT22;6174;49.058;8.524;2023-06-14T10:03:25;23.40;61.70
12223;DHT22;6174;49.058;8.524;2023-06-14T10:05:52;23.60;59.60
12223;DHT22;6174;49.058;8.524;2023-06-14T10:08:25;23.60;58.50
12223;DHT22;6174;49.058;8.524;2023-06-14T10:10:55;23.70;57.20
12223;DHT22;6174;49.058;8.524;2023-06-14T10:13:22;23.80;57.30
12223;DHT22;6174;49.058;8.524;2023-06-14T10:15:57;23.80;58.40
12223;DHT22;6174;49.058;8.524;2023-06-14T10:18:31;23.90;57.00
12223;DHT22;6174;49.058;8.524;2023-06-14T10:21:04;23.90;57.80
12223;DHT22;6174;49.058;8.524;2023-06-14T10:23:37;24.10;55.70
12223;DHT22;6174;49.058;8.524;2023-06-14T10:26:07;24.00;53.90
12223;DHT22;6174;49.058;8.524;2023-06-14T10:28:37;24.00;54.40
12223;DHT22;6174;49.058;8.524;2023-06-14T10:31:08;24.00;57.40
12223;DHT22;6174;49.058;8.524;2023-06-14T10:33:37;24.00;57.70
12223;DHT22;6174;49.058;8.524;2023-06-14T10:36:09;23.90;55.50
12223;DHT22;6174;49.058;8.524;2023-06-14T10:38:38;23.50;55.50
12223;DHT22;6174;49.058;8.524;2023-06-14T10:41:05;23.50;58.60
12223;DHT22;6174;49.058;8.524;2023-06-14T10:43:33;23.50;56.80
12223;DHT22;6174;49.058;8.524;2023-06-14T10:46:17;23.60;57.10
12223;DHT22;6174;49.058;8.524;2023-06-14T10:48:44;23.70;58.30
12223;DHT22;6174;49.058;8.524;2023-06-14T10:51:18;23.80;56.40
12223;DHT22;6174;49.058;8.524;2023-06-14T10:53:49;23.90;56.70
12223;DHT22;6174;49.058;8.524;2023-06-14T10:56:29;23.50;53.70
12223;DHT22;6174;49.058;8.524;2023-06-14T10:58:57;23.20;56.80
12223;DHT22;6174;49.058;8.524;2023-06-14T11:01:32;23.40;58.10
12223;DHT22;6174;49.058;8.524;2023-06-14T11:04:07;23.50;59.20
12223;DHT22;6174;49.058;8.524;2023-06-14T11:06:45;23.50;58.70
12223;DHT22;6174;49.058;8.524;2023-06-14T11:12:20;23.40;58.40
12223;DHT22;6174;49.058;8.524;2023-06-14T11:14:47;23.50;58.90
12223;DHT22;6174;49.058;8.524;2023-06-14T11:17:14;23.80;60.70
12223;DHT22;6174;49.058;8.524;2023-06-14T11:19:41;24.10;60.60
12223;DHT22;6174;49.058;8.524;2023-06-14T11:22:07;24.30;60.40
12223;DHT22;6174;49.058;8.524;2023-06-14T11:24:36;24.30;57.90
12223;DHT22;6174;49.058;8.524;2023-06-14T11:27:03;24.10;56.10
12223;DHT22;6174;49.058;8.524;2023-06-14T11:29:30;24.10;56.90
12223;DHT22;6174;49.058;8.524;2023-06-14T11:31:57;24.20;56.50
12223;DHT22;6174;49.058;8.524;2023-06-14T11:34:24;24.20;57.90
12223;DHT22;6174;49.058;8.524;2023-06-14T11:36:51;24.00;58.70
12223;DHT22;6174;49.058;8.524;2023-06-14T11:39:24;24.20;57.20
12223;DHT22;6174;49.058;8.524;2023-06-14T11:41:52;24.00;57.50
12223;DHT22;6174;49.058;8.524;2023-06-14T11:44:20;23.90;56.90
12223;DHT22;6174;49.058;8.524;2023-06-14T11:46:47;23.80;58.50
12223;DHT22;6174;49.058;8.524;2023-06-14T11:49:16;23.60;56.60
12223;DHT22;6174;49.058;8.524;2023-06-14T11:51:42;23.50;57.70
12223;DHT22;6174;49.058;8.524;2023-06-14T11:54:10;23.60;58.30
12223;DHT22;6174;49.058;8.524;2023-06-14T11:56:37;23.80;60.70
12223;DHT22;6174;49.058;8.524;2023-06-14T11:59:05;23.90;59.10
12223;DHT22;6174;49.058;8.524;2023-06-14T12:01:35;23.90;60.20
12223;DHT22;6174;49.058;8.524;2023-06-14T12:04:02;23.70;57.70
12223;DHT22;6174;49.058;8.524;2023-06-14T12:06:30;23.70;57.80
12223;DHT22;6174;49.058;8.524;2023-06-14T12:09:03;23.50;58.90
12223;DHT22;6174;49.058;8.524;2023-06-14T12:11:33;23.50;58.80
12223;DHT22;6174;49.058;8.524;2023-06-14T12:14:00;23.50;59.90
12223;DHT22;6174;49.058;8.524;2023-06-14T12:16:32;23.80;58.80
12223;DHT22;6174;49.058;8.524;2023-06-14T12:19:01;23.90;56.60
12223;DHT22;6174;49.058;8.524;2023-06-14T12:21:34;24.00;58.80
12223;DHT22;6174;49.058;8.524;2023-06-14T12:24:03;24.00;56.90
12223;DHT22;6174;49.058;8.524;2023-06-14T12:26:32;23.90;58.30
12223;DHT22;6174;49.058;8.524;2023-06-14T12:28:59;23.80;58.70
12223;DHT22;6174;49.058;8.524;2023-06-14T12:31:26;23.70;57.20
12223;DHT22;6174;49.058;8.524;2023-06-14T12:33:54;23.80;57.90
12223;DHT22;6174;49.058;8.524;2023-06-14T12:36:21;24.00;59.50
12223;DHT22;6174;49.058;8.524;2023-06-14T12:38:47;24.00;59.20
12223;DHT22;6174;49.058;8.524;2023-06-14T12:41:16;24.00;57.60
12223;DHT22;6174;49.058;8.524;2023-06-14T12:43:43;24.00;57.80
12223;DHT22;6174;49.058;8.524;2023-06-14T12:46:10;23.90;57.80
12223;DHT22;6174;49.058;8.524;2023-06-14T12:48:37;23.80;57.40
12223;DHT22;6174;49.058;8.524;2023-06-14T12:51:05;23.80;59.80
12223;DHT22;6174;49.058;8.524;2023-06-14T12:53:32;23.70;60.00
12223;DHT22;6174;49.058;8.524;2023-06-14T12:55:58;23.70;61.60
12223;DHT22;6174;49.058;8.524;2023-06-14T12:58:25;23.70;57.30
12223;DHT22;6174;49.058;8.524;2023-06-14T13:00:52;23.80;57.90
12223;DHT22;6174;49.058;8.524;2023-06-14T13:03:19;23.90;56.80
12223;DHT22;6174;49.058;8.524;2023-06-14T13:05:46;24.00;58.70
12223;DHT22;6174;49.058;8.524;2023-06-14T13:08:14;24.10;57.70
12223;DHT22;6174;49.058;8.524;2023-06-14T13:10:41;24.10;58.00
12223;DHT22;6174;49.058;8.524;2023-06-14T13:13:07;24.00;57.20
12223;DHT22;6174;49.058;8.524;2023-06-14T13:15:34;24.00;56.40
12223;DHT22;6174;49.058;8.524;2023-06-14T13:18:01;24.20;58.40
12223;DHT22;6174;49.058;8.524;2023-06-14T13:20:28;24.30;56.70
12223;DHT22;6174;49.058;8.524;2023-06-14T13:22:55;24.50;54.70
12223;DHT22;6174;49.058;8.524;2023-06-14T13:25:23;24.50;55.50
12223;DHT22;6174;49.058;8.524;2023-06-14T13:27:50;24.60;55.40
12223;DHT22;6174;49.058;8.524;2023-06-14T13:30:17;24.70;56.70
12223;DHT22;6174;49.058;8.524;2023-06-14T13:32:43;24.70;56.70
12223;DHT22;6174;49.058;8.524;2023-06-14T13:35:10;24.70;53.00
12223;DHT22;6174;49.058;8.524;2023-06-14T13:37:37;24.60;53.90
12223;DHT22;6174;49.058;8.524;2023-06-14T13:40:05;24.70;51.70
12223;DHT22;6174;49.058;8.524;2023-06-14T13:42:33;24.80;55.10
12223;DHT22;6174;49.058;8.524;2023-06-14T13:45:01;24.80;54.20
12223;DHT22;6174;49.058;8.524;2023-06-14T13:47:28;24.90;53.20
12223;DHT22;6174;49.058;8.524;2023-06-14T13:49:55;25.00;52.00
12223;DHT22;6174;49.058;8.524;2023-06-14T13:52:22;24.90;50.30
12223;DHT22;6174;49.058;8.524;2023-06-14T13:54:48;24.80;53.40
12223;DHT22;6174;49.058;8.524;2023-06-14T13:57:16;24.60;51.40
12223;DHT22;6174;49.058;8.524;2023-06-14T13:59:44;24.50;54.00
12223;DHT22;6174;49.058;8.524;2023-06-14T14:02:11;24.40;54.70
12223;DHT22;6174;49.058;8.524;2023-06-14T14:04:38;24.40;54.90
12223;DHT22;6174;49.058;8.524;2023-06-14T14:07:06;24.30;54.20
12223;DHT22;6174;49.058;8.524;2023-06-14T14:09:34;24.40;55.00
12223;DHT22;6174;49.058;8.524;2023-06-14T14:12:01;24.40;55.80
12223;DHT22;6174;49.058;8.524;2023-06-14T14:14:28;24.50;54.50
12223;DHT22;6174;49.058;8.524;2023-06-14T14:16:56;24.60;53.20
12223;DHT22;6174;49.058;8.524;2023-06-14T14:19:23;24.60;49.90
12223;DHT22;6174;49.058;8.524;2023-06-14T14:21:50;24.60;51.40
12223;DHT22;6174;49.058;8.524;2023-06-14T14:24:19;24.60;54.50
12223;DHT22;6174;49.058;8.524;2023-06-14T14:26:45;24.60;51.60
12223;DHT22;6174;49.058;8.524;2023-06-14T14:29:14;24.60;52.70
12223;DHT22;6174;49.058;8.524;2023-06-14T14:31:40;24.70;52.30
12223;DHT22;6174;49.058;8.524;2023-06-14T14:34:08;24.80;52.70
12223;DHT22;6174;49.058;8.524;2023-06-14T14:36:35;24.90;52.90
12223;DHT22;6174;49.058;8.524;2023-06-14T14:39:03;24.90;50.90
12223;DHT22;6174;49.058;8.524;2023-06-14T14:41:30;24.80;51.80
12223;DHT22;6174;49.058;8.524;2023-06-14T14:43:56;24.80;52.40
12223;DHT22;6174;49.058;8.524;2023-06-14T14:46:24;24.70;53.20
12223;DHT22;6174;49.058;8.524;2023-06-14T14:48:51;24.60;53.90
12223;DHT22;6174;49.058;8.524;2023-06-14T14:51:19;24.40;53.00
12223;DHT22;6174;49.058;8.524;2023-06-14T14:53:46;24.30;53.40
12223;DHT22;6174;49.058;8.524;2023-06-14T14:56:13;24.20;53.80
12223;DHT22;6174;49.058;8.524;2023-06-14T14:58:39;24.30;54.70
12223;DHT22;6174;49.058;8.524;2023-06-14T15:01:06;24.30;54.30
12223;DHT22;6174;49.058;8.524;2023-06-14T15:03:33;24.30;51.00
12223;DHT22;6174;49.058;8.524;2023-06-14T15:06:00;24.30;53.30
12223;DHT22;6174;49.058;8.524;2023-06-14T15:08:28;24.50;53.60
12223;DHT22;6174;49.058;8.524;2023-06-14T15:10:55;24.60;53.60
12223;DHT22;6174;49.058;8.524;2023-06-14T15:13:22;24.60;52.00
12223;DHT22;6174;49.058;8.524;2023-06-14T15:15:49;24.60;53.50
12223;DHT22;6174;49.058;8.524;2023-06-14T15:18:15;24.50;54.10
12223;DHT22;6174;49.058;8.524;2023-06-14T15:20:42;24.40;54.70
12223;DHT22;6174;49.058;8.524;2023-06-14T15:23:09;24.30;55.10
12223;DHT22;6174;49.058;8.524;2023-06-14T15:25:37;24.20;54.80
12223;DHT22;6174;49.058;8.524;2023-06-14T15:28:04;24.20;54.50
12223;DHT22;6174;49.058;8.524;2023-06-14T15:30:32;24.10;54.20
12223;DHT22;6174;49.058;8.524;2023-06-14T15:32:59;24.10;54.70
12223;DHT22;6174;49.058;8.524;2023-06-14T15:35:26;24.20;55.40
12223;DHT22;6174;49.058;8.524;2023-06-14T15:37:53;24.20;54.80
12223;DHT22;6174;49.058;8.524;2023-06-14T15:40:20;24.20;54.00
12223;DHT22;6174;49.058;8.524;2023-06-14T15:42:48;24.20;53.20
12223;DHT22;6174;49.058;8.524;2023-06-14T15:45:15;24.40;52.50
12223;DHT22;6174;49.058;8.524;2023-06-14T15:47:42;24.40;53.00
12223;DHT22;6174;49.058;8.524;2023-06-14T15:50:09;24.40;53.30
12223;DHT22;6174;49.058;8.524;2023-06-14T15:52:37;24.40;53.80
12223;DHT22;6174;49.058;8.524;2023-06-14T15:55:05;24.50;53.50
12223;DHT22;6174;49.058;8.524;2023-06-14T15:57:31;24.40;53.80
12223;DHT22;6174;49.058;8.524;2023-06-14T16:00:00;24.40;53.40
12223;DHT22;6174;49.058;8.524;2023-06-14T16:02:26;24.40;53.30
12223;DHT22;6174;49.058;8.524;2023-06-14T16:04:53;24.40;53.90
12223;DHT22;6174;49.058;8.524;2023-06-14T16:07:20;24.40;53.60
12223;DHT22;6174;49.058;8.524;2023-06-14T16:09:47;24.40;54.80
12223;DHT22;6174;49.058;8.524;2023-06-14T16:12:13;24.30;54.10
12223;DHT22;6174;49.058;8.524;2023-06-14T16:14:40;24.30;53.10
12223;DHT22;6174;49.058;8.524;2023-06-14T16:17:09;24.30;53.60
12223;DHT22;6174;49.058;8.524;2023-06-14T16:19:35;24.20;54.10
12223;DHT22;6174;49.058;8.524;2023-06-14T16:22:02;24.20;55.00
12223;DHT22;6174;49.058;8.524;2023-06-14T16:24:29;24.20;54.80
12223;DHT22;6174;49.058;8.524;2023-06-14T16:26:56;24.10;54.60
12223;DHT22;6174;49.058;8.524;2023-06-14T16:29:23;24.10;55.40
12223;DHT22;6174;49.058;8.524;2023-06-14T16:31:50;24.10;53.90
12223;DHT22;6174;49.058;8.524;2023-06-14T16:34:18;24.10;54.70
12223;DHT22;6174;49.058;8.524;2023-06-14T16:36:45;24.10;54.40
12223;DHT22;6174;49.058;8.524;2023-06-14T16:39:12;24.10;54.00
12223;DHT22;6174;49.058;8.524;2023-06-14T16:41:38;24.00;53.90
12223;DHT22;6174;49.058;8.524;2023-06-14T16:44:05;24.00;53.30
12223;DHT22;6174;49.058;8.524;2023-06-14T16:46:33;24.10;54.30
12223;DHT22;6174;49.058;8.524;2023-06-14T16:49:01;24.10;54.50
12223;DHT22;6174;49.058;8.524;2023-06-14T16:51:29;24.10;55.00
12223;DHT22;6174;49.058;8.524;2023-06-14T16:53:56;24.10;54.60
12223;DHT22;6174;49.058;8.524;2023-06-14T16:56:23;24.10;53.90
12223;DHT22;6174;49.058;8.524;2023-06-14T16:58:52;24.10;53.60
12223;DHT22;6174;49.058;8.524;2023-06-14T17:01:19;24.10;54.00
12223;DHT22;6174;49.058;8.524;2023-06-14T17:03:45;24.10;54.50
12223;DHT22;6174;49.058;8.524;2023-06-14T17:06:12;24.10;54.10
12223;DHT22;6174;49.058;8.524;2023-06-14T17:08:41;24.10;54.70
12223;DHT22;6174;49.058;8.524;2023-06-14T17:11:08;24.10;55.20
12223;DHT22;6174;49.058;8.524;2023-06-14T17:13:34;24.00;55.10
12223;DHT22;6174;49.058;8.524;2023-06-14T17:18:32;23.80;56.10
12223;DHT22;6174;49.058;8.524;2023-06-14T17:20:59;23.80;56.20
12223;DHT22;6174;49.058;8.524;2023-06-14T17:23:26;23.80;56.70
12223;DHT22;6174;49.058;8.524;2023-06-14T17:25:54;23.70;57.40
12223;DHT22;6174;49.058;8.524;2023-06-14T17:28:21;23.60;57.70
12223;DHT22;6174;49.058;8.524;2023-06-14T17:30:47;23.50;57.50
12223;DHT22;6174;49.058;8.524;2023-06-14T17:33:14;23.30;57.30
12223;DHT22;6174;49.058;8.524;2023-06-14T17:35:42;23.20;57.30
12223;DHT22;6174;49.058;8.524;2023-06-14T17:38:09;23.20;58.20
12223;DHT22;6174;49.058;8.524;2023-06-14T17:40:36;23.20;58.00
12223;DHT22;6174;49.058;8.524;2023-06-14T17:43:05;23.20;57.80
12223;DHT22;6174;49.058;8.524;2023-06-14T17:45:31;23.30;58.10
12223;DHT22;6174;49.058;8.524;2023-06-14T17:47:58;23.30;56.40
12223;DHT22;6174;49.058;8.524;2023-06-14T17:50:26;23.40;55.80
12223;DHT22;6174;49.058;8.524;2023-06-14T17:52:52;23.50;58.30
12223;DHT22;6174;49.058;8.524;2023-06-14T17:55:19;23.60;57.90
12223;DHT22;6174;49.058;8.524;2023-06-14T17:57:46;23.60;57.90
12223;DHT22;6174;49.058;8.524;2023-06-14T18:00:15;23.70;57.40
12223;DHT22;6174;49.058;8.524;2023-06-14T18:02:42;23.70;57.20
12223;DHT22;6174;49.058;8.524;2023-06-14T18:05:09;23.70;57.40
12223;DHT22;6174;49.058;8.524;2023-06-14T18:07:35;23.80;58.10
12223;DHT22;6174;49.058;8.524;2023-06-14T18:10:04;23.80;58.20
12223;DHT22;6174;49.058;8.524;2023-06-14T18:12:31;23.90;58.00
12223;DHT22;6174;49.058;8.524;2023-06-14T18:14:57;23.80;58.20
12223;DHT22;6174;49.058;8.524;2023-06-14T18:17:26;23.80;57.90
12223;DHT22;6174;49.058;8.524;2023-06-14T18:19:53;23.70;58.10
12223;DHT22;6174;49.058;8.524;2023-06-14T18:22:19;23.70;57.90
12223;DHT22;6174;49.058;8.524;2023-06-14T18:24:47;23.70;58.20
12223;DHT22;6174;49.058;8.524;2023-06-14T18:27:13;23.60;58.00
12223;DHT22;6174;49.058;8.524;2023-06-14T18:29:40;23.60;58.50
12223;DHT22;6174;49.058;8.524;2023-06-14T18:32:08;23.50;58.60
12223;DHT22;6174;49.058;8.524;2023-06-14T18:34:36;23.50;58.50
12223;DHT22;6174;49.058;8.524;2023-06-14T18:37:03;23.50;59.30
12223;DHT22;6174;49.058;8.524;2023-06-14T18:39:32;23.40;59.10
12223;DHT22;6174;49.058;8.524;2023-06-14T18:41:59;23.30;58.90
12223;DHT22;6174;49.058;8.524;2023-06-14T18:44:26;23.30;59.40
12223;DHT22;6174;49.058;8.524;2023-06-14T18:46:52;23.20;59.10
12223;DHT22;6174;49.058;8.524;2023-06-14T18:49:19;23.20;59.30
12223;DHT22;6174;49.058;8.524;2023-06-14T18:51:47;23.10;60.10
12223;DHT22;6174;49.058;8.524;2023-06-14T18:54:14;23.00;59.70
12223;DHT22;6174;49.058;8.524;2023-06-14T18:56:42;22.90;59.90
12223;DHT22;6174;49.058;8.524;2023-06-14T18:59:11;22.70;60.00
12223;DHT22;6174;49.058;8.524;2023-06-14T19:01:37;22.70;61.10
12223;DHT22;6174;49.058;8.524;2023-06-14T19:04:04;22.60;61.10
12223;DHT22;6174;49.058;8.524;2023-06-14T19:06:31;22.50;61.60
12223;DHT22;6174;49.058;8.524;2023-06-14T19:08:59;22.40;61.70
12223;DHT22;6174;49.058;8.524;2023-06-14T19:11:25;22.20;61.70
12223;DHT22;6174;49.058;8.524;2023-06-14T19:13:52;22.10;61.40
12223;DHT22;6174;49.058;8.524;2023-06-14T19:16:19;22.10;62.60
12223;DHT22;6174;49.058;8.524;2023-06-14T19:18:46;22.00;60.50
12223;DHT22;6174;49.058;8.524;2023-06-14T19:21:12;21.90;61.20
12223;DHT22;6174;49.058;8.524;2023-06-14T19:23:40;21.90;61.60
12223;DHT22;6174;49.058;8.524;2023-06-14T19:26:09;21.80;61.90
12223;DHT22;6174;49.058;8.524;2023-06-14T19:28:36;21.70;60.60
12223;DHT22;6174;49.058;8.524;2023-06-14T19:31:03;21.80;60.80
12223;DHT22;6174;49.058;8.524;2023-06-14T19:33:30;21.80;61.80
12223;DHT22;6174;49.058;8.524;2023-06-14T19:35:56;21.70;61.20
12223;DHT22;6174;49.058;8.524;2023-06-14T19:38:23;21.70;61.40
12223;DHT22;6174;49.058;8.524;2023-06-14T19:40:50;21.60;61.30
12223;DHT22;6174;49.058;8.524;2023-06-14T19:43:18;21.60;60.80
12223;DHT22;6174;49.058;8.524;2023-06-14T19:45:45;21.50;62.10
12223;DHT22;6174;49.058;8.524;2023-06-14T19:48:11;21.50;62.60
12223;DHT22;6174;49.058;8.524;2023-06-14T19:50:39;21.40;62.10
12223;DHT22;6174;49.058;8.524;2023-06-14T19:53:05;21.40;63.00
12223;DHT22;6174;49.058;8.524;2023-06-14T19:55:32;21.30;63.90
12223;DHT22;6174;49.058;8.524;2023-06-14T19:57:59;21.20;63.60
12223;DHT22;6174;49.058;8.524;2023-06-14T20:00:27;21.10;64.00
12223;DHT22;6174;49.058;8.524;2023-06-14T20:02:54;21.00;64.20
12223;DHT22;6174;49.058;8.524;2023-06-14T20:05:21;20.90;64.20
12223;DHT22;6174;49.058;8.524;2023-06-14T20:07:47;20.80;64.30
12223;DHT22;6174;49.058;8.524;2023-06-14T20:10:14;20.80;64.30
12223;DHT22;6174;49.058;8.524;2023-06-14T20:12:41;20.70;65.20
12223;DHT22;6174;49.058;8.524;2023-06-14T20:15:09;20.70;66.10
12223;DHT22;6174;49.058;8.524;2023-06-14T20:17:37;20.70;66.90
12223;DHT22;6174;49.058;8.524;2023-06-14T20:20:05;20.60;67.00
12223;DHT22;6174;49.058;8.524;2023-06-14T20:22:32;20.50;67.20
12223;DHT22;6174;49.058;8.524;2023-06-14T20:25:03;20.40;66.40
12223;DHT22;6174;49.058;8.524;2023-06-14T20:27:31;20.30;67.20
12223;DHT22;6174;49.058;8.524;2023-06-14T20:29:58;20.20;68.00
12223;DHT22;6174;49.058;8.524;2023-06-14T20:32:26;20.10;68.60
12223;DHT22;6174;49.058;8.524;2023-06-14T20:34:55;20.00;69.80
12223;DHT22;6174;49.058;8.524;2023-06-14T20:37:22;19.90;70.10
12223;DHT22;6174;49.058;8.524;2023-06-14T20:39:53;19.80;70.90
12223;DHT22;6174;49.058;8.524;2023-06-14T20:42:22;19.70;72.30
12223;DHT22;6174;49.058;8.524;2023-06-14T20:44:51;19.60;72.70
12223;DHT22;6174;49.058;8.524;2023-06-14T20:47:18;19.60;73.70
12223;DHT22;6174;49.058;8.524;2023-06-14T20:49:44;19.50;75.40
12223;DHT22;6174;49.058;8.524;2023-06-14T20:52:13;19.50;76.40
12223;DHT22;6174;49.058;8.524;2023-06-14T20:54:39;19.40;76.90